createdAt,value
2023-09-02T00:01:53.009Z,22.88
2023-09-02T00:04:19.489Z,27.30
2023-09-02T00:06:45.988Z,27.92
2023-09-02T00:09:13.737Z,26.90
2023-09-02T00:11:40.235Z,27.13
2023-09-02T00:14:06.742Z,26.83
2023-09-02T00:16:33.181Z,26.42
2023-09-02T00:18:59.639Z,26.77
2023-09-02T00:21:26.086Z,25.73
2023-09-02T00:24:02.131Z,28.48
2023-09-02T00:26:29.345Z,29.13
2023-09-02T00:28:55.757Z,27.85
2023-09-02T00:31:22.247Z,25.63
2023-09-02T00:33:48.806Z,25.63
2023-09-02T00:36:15.409Z,24.27
2023-09-02T00:38:42.354Z,22.98
2023-09-02T00:41:27.890Z,23.90
2023-09-02T00:43:55.492Z,23.80
2023-09-02T00:46:22.786Z,24.42
2023-09-02T00:48:49.437Z,24.48
2023-09-02T00:51:15.957Z,23.13
2023-09-02T00:53:42.367Z,23.50
2023-09-02T00:56:08.834Z,23.95
2023-09-02T00:58:36.758Z,23.35
2023-09-02T01:01:04.507Z,23.75
2023-09-02T01:03:31.348Z,22.98
2023-09-02T01:05:59.186Z,22.40
2023-09-02T01:08:27.137Z,29.88
2023-09-02T01:10:54.610Z,26.88
2023-09-02T01:13:21.308Z,25.40
2023-09-02T01:15:47.748Z,23.23
2023-09-02T01:18:14.245Z,23.23
2023-09-02T01:20:46.625Z,23.38
2023-09-02T01:23:16.231Z,22.95
2023-09-02T01:26:15.060Z,23.67
2023-09-02T01:28:44.154Z,22.33
2023-09-02T01:31:13.899Z,22.17
2023-09-02T01:33:42.164Z,21.23
2023-09-02T01:36:14.054Z,22.33
2023-09-02T01:38:41.839Z,26.58
2023-09-02T01:41:10.878Z,24.92
2023-09-02T01:43:38.636Z,25.77
2023-09-02T01:46:06.875Z,24.40
2023-09-02T01:48:34.585Z,23.52
2023-09-02T01:51:02.374Z,23.92
2023-09-02T01:53:30.390Z,23.45
2023-09-02T01:55:58.090Z,23.08
2023-09-02T01:58:24.756Z,23.25
2023-09-02T02:00:51.363Z,22.85
2023-09-02T02:03:34.469Z,22.05
2023-09-02T02:06:01.785Z,22.92
2023-09-02T02:08:59.208Z,23.10
2023-09-02T02:11:30.047Z,22.65
2023-09-02T02:14:04.252Z,23.52
2023-09-02T02:16:31.992Z,22.42
2023-09-02T02:19:00.196Z,21.85
2023-09-02T02:21:30.637Z,22.38
2023-09-02T02:23:58.258Z,22.15
2023-09-02T02:26:24.865Z,21.77
2023-09-02T02:28:51.302Z,22.83
2023-09-02T02:31:17.777Z,23.60
2023-09-02T02:33:44.205Z,23.23
2023-09-02T02:36:12.209Z,23.92
2023-09-02T02:38:38.638Z,23.95
2023-09-02T02:41:05.036Z,23.08
2023-09-02T02:43:31.556Z,24.13
2023-09-02T02:45:58.337Z,24.13
2023-09-02T02:48:31.031Z,24.23
2023-09-02T02:50:58.390Z,23.58
2023-09-02T02:53:25.330Z,24.17
2023-09-02T02:55:52.054Z,25.75
2023-09-02T02:58:18.519Z,23.80
2023-09-02T03:00:45.824Z,24.70
2023-09-02T03:03:12.419Z,25.65
2023-09-02T03:05:42.010Z,24.35
2023-09-02T03:08:09.804Z,25.30
2023-09-02T03:10:36.981Z,24.88
2023-09-02T03:13:04.430Z,25.42
2023-09-02T03:15:31.120Z,26.23
2023-09-02T03:17:57.671Z,25.02
2023-09-02T03:20:24.415Z,26.00
2023-09-02T03:22:50.946Z,26.02
2023-09-02T03:25:17.404Z,27.35
2023-09-02T03:27:43.865Z,27.40
2023-09-02T03:30:10.726Z,27.98
2023-09-02T03:32:37.228Z,28.85
2023-09-02T03:35:05.540Z,31.38
2023-09-02T03:37:32.033Z,28.58
2023-09-02T03:39:58.555Z,28.20
2023-09-02T03:42:25.080Z,30.48
2023-09-02T03:44:51.812Z,30.80
2023-09-02T03:47:18.328Z,31.15
2023-09-02T03:49:44.853Z,29.50
2023-09-02T03:52:11.301Z,29.80
2023-09-02T03:54:38.740Z,30.73
2023-09-02T03:57:06.605Z,27.00
2023-09-02T03:59:33.069Z,28.25
2023-09-02T04:01:59.453Z,28.17
2023-09-02T04:04:27.054Z,29.80
2023-09-02T04:06:53.497Z,28.05
2023-09-02T04:09:19.922Z,28.08
2023-09-02T04:11:46.382Z,28.45
2023-09-02T04:14:12.865Z,27.27
2023-09-02T04:16:39.637Z,27.55
2023-09-02T04:19:06.223Z,27.00
2023-09-02T04:21:33.127Z,27.30
2023-09-02T04:23:59.654Z,25.98
2023-09-02T04:26:26.202Z,27.15
2023-09-02T04:28:56.715Z,27.55
2023-09-02T04:31:23.843Z,25.60
2023-09-02T04:33:50.333Z,27.42
2023-09-02T04:36:16.831Z,26.92
2023-09-02T04:38:43.303Z,24.95
2023-09-02T04:41:09.852Z,24.00
2023-09-02T04:43:36.494Z,24.23
2023-09-02T04:46:03.673Z,25.23
2023-09-02T04:48:30.373Z,25.15
2023-09-02T04:50:57.785Z,24.23
2023-09-02T04:53:24.360Z,24.37
2023-09-02T04:55:51.722Z,24.80
2023-09-02T04:58:19.596Z,24.73
2023-09-02T05:00:46.141Z,26.60
2023-09-02T05:03:12.703Z,23.77
2023-09-02T05:05:39.174Z,25.05
2023-09-02T05:08:05.789Z,25.05
2023-09-02T05:10:32.261Z,24.23
2023-09-02T05:12:58.692Z,25.20
2023-09-02T05:15:25.271Z,24.08
2023-09-02T05:17:52.175Z,24.67
2023-09-02T05:20:18.638Z,24.13
2023-09-02T05:22:45.414Z,24.83
2023-09-02T05:25:11.898Z,25.10
2023-09-02T05:27:40.021Z,23.65
2023-09-02T05:30:07.414Z,23.15
2023-09-02T05:32:33.991Z,24.48
2023-09-02T05:35:00.450Z,24.23
2023-09-02T05:37:26.952Z,25.15
2023-09-02T05:39:53.473Z,24.40
2023-09-02T05:42:19.905Z,25.60
2023-09-02T05:44:46.421Z,24.20
2023-09-02T05:47:14.276Z,24.85
2023-09-02T05:49:41.128Z,25.38
2023-09-02T05:52:07.668Z,26.77
2023-09-02T05:54:34.297Z,25.05
2023-09-02T05:57:01.264Z,24.38
2023-09-02T05:59:27.738Z,26.45
2023-09-02T06:01:56.224Z,26.83
2023-09-02T06:04:22.676Z,27.80
2023-09-02T06:06:49.102Z,25.88
2023-09-02T06:09:15.532Z,25.15
2023-09-02T06:11:41.949Z,25.70
2023-09-02T06:14:08.368Z,27.48
2023-09-02T06:16:34.883Z,25.83
2023-09-02T06:19:01.335Z,26.02
2023-09-02T06:21:27.853Z,28.80
2023-09-02T06:23:54.311Z,28.15
2023-09-02T06:26:20.756Z,25.27
2023-09-02T06:28:47.861Z,26.88
2023-09-02T06:31:14.480Z,26.67
2023-09-02T06:33:40.943Z,26.90
2023-09-02T06:36:11.855Z,28.17
2023-09-02T06:38:38.519Z,27.55
2023-09-02T06:41:16.094Z,26.42
2023-09-02T06:43:43.243Z,25.70
2023-09-02T06:46:17.764Z,26.58
2023-09-02T06:48:45.488Z,26.00
2023-09-02T06:51:12.438Z,27.27
2023-09-02T06:53:42.570Z,27.75
2023-09-02T06:56:10.027Z,24.90
2023-09-02T06:58:38.528Z,25.65
2023-09-02T07:01:04.949Z,26.80
2023-09-02T07:03:31.515Z,26.35
2023-09-02T07:06:08.107Z,26.63
2023-09-02T07:08:34.936Z,26.73
2023-09-02T07:11:01.377Z,26.90
2023-09-02T07:13:27.895Z,27.35
2023-09-02T07:16:01.137Z,27.60
2023-09-02T07:18:27.713Z,25.00
2023-09-02T07:20:58.857Z,27.00
2023-09-02T07:23:25.463Z,25.65
2023-09-02T07:25:51.893Z,27.17
2023-09-02T07:28:18.338Z,26.77
2023-09-02T07:30:44.946Z,27.15
2023-09-02T07:33:11.484Z,26.77
2023-09-02T07:35:39.157Z,23.48
2023-09-02T07:38:06.079Z,23.40
2023-09-02T07:40:32.603Z,22.85
2023-09-02T07:43:01.353Z,21.15
2023-09-02T07:45:27.898Z,21.85
2023-09-02T07:47:54.901Z,21.30
2023-09-02T07:50:21.804Z,19.58
2023-09-02T07:52:49.416Z,20.50
2023-09-02T07:55:18.322Z,19.70
2023-09-02T07:57:45.247Z,20.55
2023-09-02T08:00:12.137Z,19.48
2023-09-02T08:02:38.660Z,20.00
2023-09-02T08:05:05.511Z,17.95
2023-09-02T08:07:32.968Z,18.30
2023-09-02T08:09:59.564Z,18.40
2023-09-02T08:12:25.988Z,18.70
2023-09-02T08:14:52.441Z,19.75
2023-09-02T08:17:20.765Z,17.75
2023-09-02T08:19:48.020Z,19.23
2023-09-02T08:22:14.764Z,18.95
2023-09-02T08:24:42.876Z,18.23
2023-09-02T08:27:09.864Z,19.55
2023-09-02T08:29:36.340Z,19.25
2023-09-02T08:32:02.850Z,18.75
2023-09-02T08:34:29.717Z,18.58
2023-09-02T08:36:56.185Z,17.60
2023-09-02T08:39:22.642Z,19.40
2023-09-02T08:41:50.588Z,19.63
2023-09-02T08:44:18.959Z,19.65
2023-09-02T08:46:47.112Z,20.10
2023-09-02T08:51:43.910Z,20.40
2023-09-02T08:56:42.566Z,17.90
2023-09-02T08:59:13.799Z,17.88
2023-09-02T09:01:45.460Z,17.80
2023-09-02T09:04:15.594Z,16.00
2023-09-02T09:06:42.843Z,15.85
2023-09-02T09:09:10.889Z,16.88
2023-09-02T09:14:11.036Z,13.75
2023-09-02T09:16:40.223Z,15.82
2023-09-02T09:19:07.829Z,13.18
2023-09-02T09:21:36.138Z,16.38
2023-09-02T09:24:04.238Z,15.65
2023-09-02T09:29:00.394Z,17.17
2023-09-02T09:31:30.024Z,16.90
2023-09-02T09:34:02.768Z,16.30
2023-09-02T09:36:31.318Z,17.00
2023-09-02T09:39:03.442Z,15.85
2023-09-02T09:41:31.228Z,15.90
2023-09-02T09:44:18.636Z,12.82
2023-09-02T09:46:45.074Z,15.45
2023-09-02T09:49:33.385Z,15.57
2023-09-02T09:52:02.737Z,15.07
2023-09-02T09:54:42.836Z,14.95
2023-09-02T09:57:12.583Z,16.40
2023-09-02T09:59:39.202Z,13.85
2023-09-02T10:02:06.935Z,14.73
2023-09-02T10:04:34.673Z,15.10
2023-09-02T10:07:02.289Z,14.48
2023-09-02T10:09:44.007Z,13.77
2023-09-02T10:12:14.956Z,13.63
2023-09-02T10:14:49.274Z,14.73
2023-09-02T10:17:16.772Z,13.25
2023-09-02T10:19:47.025Z,14.10
2023-09-02T10:22:21.081Z,14.10
2023-09-02T10:25:07.935Z,12.60
2023-09-02T10:27:41.653Z,12.97
2023-09-02T10:30:16.095Z,13.00
2023-09-02T10:32:46.272Z,12.63
2023-09-02T10:35:18.615Z,12.85
2023-09-02T10:37:52.591Z,12.25
2023-09-02T10:40:28.648Z,12.70
2023-09-02T10:42:56.239Z,12.15
2023-09-02T10:45:23.511Z,12.65
2023-09-02T10:47:51.513Z,12.77
2023-09-02T10:52:49.839Z,12.38
2023-09-02T10:57:57.402Z,11.45
2023-09-02T11:00:30.233Z,11.60
2023-09-02T11:03:00.307Z,12.68
2023-09-02T11:05:29.268Z,9.13
2023-09-02T11:07:56.676Z,13.25
2023-09-02T11:10:53.583Z,12.60
2023-09-02T11:13:21.431Z,13.50
2023-09-02T11:16:17.862Z,12.18
2023-09-02T11:18:44.603Z,11.77
2023-09-02T11:21:12.164Z,12.25
2023-09-02T11:23:39.846Z,12.48
2023-09-02T11:26:07.921Z,11.70
2023-09-02T11:31:08.161Z,11.48
2023-09-02T11:33:35.591Z,12.18
2023-09-02T11:36:13.861Z,10.90
2023-09-02T11:38:40.512Z,10.82
2023-09-02T11:41:09.328Z,10.63
2023-09-02T11:43:38.446Z,11.57
2023-09-02T11:46:05.205Z,9.80
2023-09-02T11:48:32.141Z,9.77
2023-09-02T11:50:59.893Z,10.88
2023-09-02T11:53:30.935Z,10.30
2023-09-02T11:55:58.180Z,11.40
2023-09-02T11:58:24.989Z,10.60
2023-09-02T12:00:51.612Z,11.10
2023-09-02T12:03:26.240Z,10.90
2023-09-02T12:05:55.347Z,10.20
2023-09-02T12:08:23.402Z,10.40
2023-09-02T12:13:20.622Z,10.85
2023-09-02T12:15:51.329Z,11.40
2023-09-02T12:18:18.732Z,10.68
2023-09-02T12:20:46.918Z,9.63
2023-09-02T12:23:14.018Z,11.60
2023-09-02T12:25:41.922Z,12.97
2023-09-02T12:28:15.944Z,13.43
2023-09-02T12:30:49.315Z,13.35
2023-09-02T12:33:17.577Z,12.55
2023-09-02T12:35:50.902Z,12.40
2023-09-02T12:38:19.516Z,9.88
2023-09-02T12:40:53.614Z,12.23
2023-09-02T12:43:30.045Z,9.73
2023-09-02T12:45:57.701Z,10.93
2023-09-02T12:48:25.038Z,11.00
2023-09-02T12:50:51.644Z,9.35
2023-09-02T12:53:18.382Z,10.25
2023-09-02T12:55:46.213Z,9.95
2023-09-02T12:58:13.134Z,11.43
2023-09-02T13:00:39.610Z,10.45
2023-09-02T13:03:06.345Z,9.88
2023-09-02T13:05:33.210Z,10.23
2023-09-02T13:08:00.181Z,10.55
2023-09-02T13:10:26.880Z,10.23
2023-09-02T13:12:54.635Z,10.43
2023-09-02T13:15:26.086Z,9.65
2023-09-02T13:17:52.927Z,10.73
2023-09-02T13:20:20.103Z,9.23
2023-09-02T13:22:48.253Z,9.98
2023-09-02T13:25:17.091Z,9.50
2023-09-02T13:27:43.861Z,8.88
2023-09-02T13:30:11.622Z,8.45
2023-09-02T13:32:40.109Z,9.15
2023-09-02T13:35:15.180Z,10.23
2023-09-02T13:37:48.431Z,8.90
2023-09-02T13:40:20.867Z,10.15
2023-09-02T13:42:48.518Z,11.15
2023-09-02T13:45:14.966Z,11.73
2023-09-02T13:47:51.100Z,10.32
2023-09-02T13:50:19.435Z,9.82
2023-09-02T13:52:51.781Z,9.35
2023-09-02T13:55:19.239Z,8.68
2023-09-02T13:57:45.989Z,8.00
2023-09-02T14:00:33.273Z,8.43
2023-09-02T14:03:01.166Z,8.32
2023-09-02T14:05:27.823Z,6.95
2023-09-02T14:08:04.103Z,7.63
2023-09-02T14:10:32.630Z,7.32
2023-09-02T14:13:09.589Z,7.10
2023-09-02T14:15:36.882Z,6.63
2023-09-02T14:18:03.678Z,7.20
2023-09-02T14:20:30.168Z,6.57
2023-09-02T14:22:56.597Z,6.70
2023-09-02T14:25:23.098Z,5.93
2023-09-02T14:27:49.637Z,6.93
2023-09-02T14:30:16.424Z,6.72
2023-09-02T14:32:42.991Z,6.03
2023-09-02T14:35:09.664Z,6.40
2023-09-02T14:37:36.233Z,6.32
2023-09-02T14:40:04.856Z,6.45
2023-09-02T14:42:34.846Z,6.60
2023-09-02T14:45:03.532Z,6.85
2023-09-02T14:47:30.136Z,6.28
2023-09-02T14:49:56.835Z,6.25
2023-09-02T14:52:23.829Z,7.35
2023-09-02T14:54:50.940Z,6.03
2023-09-02T14:57:18.018Z,6.88
2023-09-02T14:59:49.129Z,5.70
2023-09-02T15:02:37.409Z,5.55
2023-09-02T15:05:27.246Z,6.05
2023-09-02T15:08:00.147Z,6.40
2023-09-02T15:10:28.076Z,5.70
2023-09-02T15:12:56.153Z,6.05
2023-09-02T15:15:25.646Z,5.93
2023-09-02T15:17:52.793Z,6.05
2023-09-02T15:20:27.034Z,5.93
2023-09-02T15:22:55.811Z,5.85
2023-09-02T15:25:26.206Z,6.22
2023-09-02T15:27:57.437Z,5.93
2023-09-02T15:30:30.242Z,6.00
2023-09-02T15:32:58.210Z,5.80
2023-09-02T15:35:25.022Z,5.90
2023-09-02T15:37:51.599Z,6.00
2023-09-02T15:40:28.756Z,5.30
2023-09-02T15:43:03.784Z,6.18
2023-09-02T15:45:30.711Z,6.18
2023-09-02T15:47:57.413Z,6.55
2023-09-02T15:50:24.069Z,5.82
2023-09-02T15:52:52.233Z,5.93
2023-09-02T15:55:20.040Z,5.85
2023-09-02T16:00:13.233Z,5.50
2023-09-02T16:02:40.099Z,5.22
2023-09-02T16:05:07.119Z,5.30
2023-09-02T16:07:33.592Z,5.23
2023-09-02T16:10:00.012Z,5.47
2023-09-02T16:12:26.476Z,7.25
2023-09-02T16:14:52.916Z,8.40
2023-09-02T16:17:23.090Z,6.82
2023-09-02T16:19:50.273Z,7.70
2023-09-02T16:22:18.072Z,8.13
2023-09-02T16:27:11.145Z,7.73
2023-09-02T16:29:38.326Z,7.25
2023-09-02T16:32:06.294Z,7.25
2023-09-02T16:34:34.590Z,8.00
2023-09-02T16:37:02.028Z,8.73
2023-09-02T16:39:28.784Z,8.73
2023-09-02T16:41:55.356Z,9.05
2023-09-02T16:44:21.851Z,9.43
2023-09-02T16:46:51.031Z,9.48
2023-09-02T16:49:19.228Z,8.88
2023-09-02T16:51:45.618Z,8.40
2023-09-02T16:54:12.436Z,9.07
2023-09-02T16:56:38.934Z,8.73
2023-09-02T16:59:05.370Z,9.65
2023-09-02T17:01:31.920Z,7.78
2023-09-02T17:03:59.063Z,6.40
2023-09-02T17:06:30.036Z,5.32
2023-09-02T17:08:56.938Z,6.18
2023-09-02T17:11:24.066Z,5.43
2023-09-02T17:13:51.257Z,5.20
2023-09-02T17:16:18.100Z,5.07
2023-09-02T17:18:44.798Z,5.70
2023-09-02T17:21:14.422Z,5.60
2023-09-02T17:23:41.269Z,5.68
2023-09-02T17:26:07.724Z,4.95
2023-09-02T17:28:34.264Z,5.57
2023-09-02T17:31:07.320Z,4.57
2023-09-02T17:33:35.432Z,4.63
2023-09-02T17:36:02.266Z,4.80
2023-09-02T17:38:28.809Z,5.07
2023-09-02T17:40:55.641Z,4.10
2023-09-02T17:43:22.103Z,4.22
2023-09-02T17:45:48.565Z,4.22
2023-09-02T17:48:15.239Z,4.70
2023-09-02T17:50:41.807Z,5.10
2023-09-02T17:53:08.400Z,4.70
2023-09-02T17:55:35.060Z,4.63
2023-09-02T17:58:05.310Z,3.67
2023-09-02T18:00:32.465Z,3.90
2023-09-02T18:03:01.021Z,3.63
2023-09-02T18:05:27.622Z,3.88
2023-09-02T18:07:54.029Z,3.50
2023-09-02T18:10:20.773Z,3.75
2023-09-02T18:12:47.163Z,3.55
2023-09-02T18:15:13.606Z,3.72
2023-09-02T18:17:40.209Z,3.50
2023-09-02T18:20:07.684Z,3.60
2023-09-02T18:22:34.339Z,3.50
2023-09-02T18:25:01.156Z,3.67
2023-09-02T18:27:27.607Z,3.22
2023-09-02T18:29:54.008Z,3.30
2023-09-02T18:32:20.507Z,3.45
2023-09-02T18:34:46.944Z,2.88
2023-09-02T18:37:13.802Z,3.38
2023-09-02T18:39:40.403Z,3.47
2023-09-02T18:42:07.581Z,3.17
2023-09-02T18:44:34.169Z,3.37
2023-09-02T18:47:00.651Z,5.57
2023-09-02T18:49:27.098Z,5.43
2023-09-02T18:51:53.620Z,5.28
2023-09-02T18:54:21.178Z,6.15
2023-09-02T18:56:47.589Z,3.70
2023-09-02T18:59:14.083Z,3.58
2023-09-02T19:01:40.744Z,3.58
2023-09-02T19:04:09.191Z,3.30
2023-09-02T19:06:36.634Z,3.65
2023-09-02T19:09:03.665Z,3.03
2023-09-02T19:11:31.037Z,3.60
2023-09-02T19:13:57.888Z,3.53
2023-09-02T19:16:25.712Z,3.58
2023-09-02T19:18:53.073Z,3.63
2023-09-02T19:21:19.618Z,3.38
2023-09-02T19:23:46.637Z,3.40
2023-09-02T19:26:14.932Z,3.58
2023-09-02T19:28:41.717Z,3.42
2023-09-02T19:31:10.902Z,3.60
2023-09-02T19:33:37.413Z,3.67
2023-09-02T19:36:04.128Z,3.80
2023-09-02T19:38:30.633Z,3.75
2023-09-02T19:40:57.071Z,3.65
2023-09-02T19:43:24.613Z,3.60
2023-09-02T19:45:51.143Z,3.47
2023-09-02T19:48:17.813Z,3.95
2023-09-02T19:50:44.826Z,4.28
2023-09-02T19:53:12.594Z,3.90
2023-09-02T19:55:46.446Z,4.03
2023-09-02T19:58:14.735Z,3.60
2023-09-02T20:00:45.353Z,3.42
2023-09-02T20:03:16.905Z,3.97
2023-09-02T20:05:44.931Z,3.47
2023-09-02T20:08:11.572Z,3.50
2023-09-02T20:10:38.072Z,3.90
2023-09-02T20:13:04.678Z,3.95
2023-09-02T20:15:31.155Z,3.47
2023-09-02T20:17:58.139Z,3.83
2023-09-02T20:20:26.754Z,4.30
2023-09-02T20:22:53.635Z,4.07
2023-09-02T20:25:20.095Z,5.07
2023-09-02T20:27:46.559Z,7.85
2023-09-02T20:30:13.517Z,6.88
2023-09-02T20:32:40.063Z,5.30
2023-09-02T20:35:07.071Z,4.72
2023-09-02T20:37:33.612Z,4.38
2023-09-02T20:40:00.067Z,4.35
2023-09-02T20:42:26.590Z,5.72
2023-09-02T20:44:53.950Z,5.10
2023-09-02T20:47:20.442Z,5.30
2023-09-02T20:49:46.865Z,5.05
2023-09-02T20:52:13.416Z,5.30
2023-09-02T20:54:39.978Z,5.65
2023-09-02T20:57:06.397Z,6.20
2023-09-02T20:59:32.824Z,7.65
2023-09-02T21:01:59.336Z,7.32
2023-09-02T21:04:25.795Z,8.95
2023-09-02T21:06:52.259Z,8.65
2023-09-02T21:09:18.716Z,8.15
2023-09-02T21:11:45.120Z,8.07
2023-09-02T21:14:11.595Z,7.47
2023-09-02T21:16:38.263Z,6.55
2023-09-02T21:19:04.794Z,6.57
2023-09-02T21:21:31.457Z,6.70
2023-09-02T21:24:03.467Z,6.32
2023-09-02T21:26:30.009Z,6.35
2023-09-02T21:28:56.470Z,6.47
2023-09-02T21:31:23.110Z,6.30
2023-09-02T21:33:54.811Z,6.57
2023-09-02T21:36:21.693Z,6.10
2023-09-02T21:38:49.390Z,6.22
2023-09-02T21:41:15.808Z,6.32
2023-09-02T21:43:42.514Z,6.20
2023-09-02T21:46:10.750Z,7.03
2023-09-02T21:48:37.972Z,6.30
2023-09-02T21:51:10.437Z,5.70
2023-09-02T21:53:40.310Z,5.60
2023-09-02T21:56:10.940Z,5.43
2023-09-02T21:58:37.562Z,5.78
2023-09-02T22:01:05.437Z,5.88
2023-09-02T22:03:40.172Z,5.38
2023-09-02T22:06:11.559Z,5.53
2023-09-02T22:08:46.916Z,5.65
2023-09-02T22:11:14.641Z,5.03
2023-09-02T22:13:43.390Z,5.70
2023-09-02T22:16:17.065Z,5.30
2023-09-02T22:18:56.245Z,5.30
2023-09-02T22:21:26.836Z,4.93
2023-09-02T22:23:53.286Z,4.93
2023-09-02T22:26:19.744Z,4.80
2023-09-02T22:28:46.224Z,4.72
2023-09-02T22:31:12.713Z,4.50
2023-09-02T22:33:39.204Z,5.07
2023-09-02T22:36:05.735Z,5.28
2023-09-02T22:38:53.467Z,4.88
2023-09-02T22:41:21.114Z,5.97
2023-09-02T22:43:47.555Z,4.90
2023-09-02T22:46:14.171Z,4.70
2023-09-02T22:48:40.817Z,4.75
2023-09-02T22:51:07.710Z,5.18
2023-09-02T22:53:34.948Z,5.00
2023-09-02T22:56:09.045Z,5.10
2023-09-02T22:58:35.492Z,5.05
2023-09-02T23:01:05.285Z,5.47
2023-09-02T23:03:32.410Z,5.28
2023-09-02T23:06:10.949Z,4.90
2023-09-02T23:08:38.453Z,4.72
2023-09-02T23:11:04.917Z,5.03
2023-09-02T23:13:31.404Z,4.68
2023-09-02T23:16:03.095Z,7.15
2023-09-02T23:18:29.618Z,6.28
2023-09-02T23:20:57.268Z,5.60
2023-09-02T23:23:23.755Z,4.75
2023-09-02T23:25:53.908Z,4.90
2023-09-02T23:28:21.615Z,4.50
2023-09-02T23:30:56.556Z,5.30
2023-09-02T23:33:23.238Z,4.70
2023-09-02T23:35:56.543Z,4.97
2023-09-02T23:38:26.938Z,4.65
2023-09-02T23:40:55.261Z,4.78
2023-09-02T23:43:22.798Z,5.20
2023-09-02T23:45:50.484Z,5.40
2023-09-02T23:48:18.555Z,5.38
2023-09-02T23:50:51.538Z,5.07
2023-09-02T23:53:18.418Z,5.15
2023-09-02T23:55:46.639Z,4.90
2023-09-02T23:58:13.080Z,4.80
